sensor_id;sensor_type;location;lat;lon;timestamp;P1;durP1;ratioP1;P2;durP2;ratioP2
8927;SDS011;4499;48.304;11.902;2023-04-06T00:00:33;13.40;;;9.40;;
8927;SDS011;4499;48.304;11.902;2023-04-06T00:03:02;12.57;;;9.37;;
8927;SDS011;4499;48.304;11.902;2023-04-06T00:05:30;11.33;;;9.13;;
8927;SDS011;4499;48.304;11.902;2023-04-06T00:08:00;14.23;;;10.23;;
8927;SDS011;4499;48.304;11.902;2023-04-06T00:10:28;12.70;;;9.77;;
8927;SDS011;4499;48.304;11.902;2023-04-06T00:12:57;14.13;;;9.97;;
8927;SDS011;4499;48.304;11.902;2023-04-06T00:15:26;12.00;;;9.37;;
8927;SDS011;4499;48.304;11.902;2023-04-06T00:17:55;11.53;;;9.63;;
8927;SDS011;4499;48.304;11.902;2023-04-06T00:20:24;11.93;;;9.50;;
8927;SDS011;4499;48.304;11.902;2023-04-06T00:22:52;12.33;;;9.03;;
8927;SDS011;4499;48.304;11.902;2023-04-06T00:25:22;13.33;;;9.03;;
8927;SDS011;4499;48.304;11.902;2023-04-06T00:27:51;12.07;;;9.60;;
8927;SDS011;4499;48.304;11.902;2023-04-06T00:30:19;13.17;;;9.67;;
8927;SDS011;4499;48.304;11.902;2023-04-06T00:32:47;12.57;;;8.97;;
8927;SDS011;4499;48.304;11.902;2023-04-06T00:35:15;13.17;;;9.07;;
8927;SDS011;4499;48.304;11.902;2023-04-06T00:37:45;12.67;;;8.63;;
8927;SDS011;4499;48.304;11.902;2023-04-06T00:40:14;10.90;;;7.77;;
8927;SDS011;4499;48.304;11.902;2023-04-06T00:42:44;10.63;;;7.77;;
8927;SDS011;4499;48.304;11.902;2023-04-06T00:45:12;11.30;;;8.13;;
8927;SDS011;4499;48.304;11.902;2023-04-06T00:47:40;9.87;;;7.90;;
8927;SDS011;4499;48.304;11.902;2023-04-06T00:50:09;11.37;;;7.87;;
8927;SDS011;4499;48.304;11.902;2023-04-06T00:52:37;11.93;;;7.83;;
8927;SDS011;4499;48.304;11.902;2023-04-06T00:55:05;12.93;;;8.03;;
8927;SDS011;4499;48.304;11.902;2023-04-06T00:57:35;10.03;;;7.30;;
8927;SDS011;4499;48.304;11.902;2023-04-06T01:00:05;10.10;;;7.70;;
8927;SDS011;4499;48.304;11.902;2023-04-06T01:02:34;9.67;;;7.37;;
8927;SDS011;4499;48.304;11.902;2023-04-06T01:05:03;9.30;;;7.50;;
8927;SDS011;4499;48.304;11.902;2023-04-06T01:07:32;10.17;;;7.40;;
8927;SDS011;4499;48.304;11.902;2023-04-06T01:10:00;9.53;;;7.50;;
8927;SDS011;4499;48.304;11.902;2023-04-06T01:12:29;11.37;;;7.70;;
8927;SDS011;4499;48.304;11.902;2023-04-06T01:14:57;9.73;;;7.43;;
8927;SDS011;4499;48.304;11.902;2023-04-06T01:17:27;10.47;;;7.53;;
8927;SDS011;4499;48.304;11.902;2023-04-06T01:19:55;11.63;;;7.70;;
8927;SDS011;4499;48.304;11.902;2023-04-06T01:22:25;10.07;;;7.27;;
8927;SDS011;4499;48.304;11.902;2023-04-06T01:24:54;10.27;;;7.60;;
8927;SDS011;4499;48.304;11.902;2023-04-06T01:27:22;9.63;;;7.43;;
8927;SDS011;4499;48.304;11.902;2023-04-06T01:29:52;11.27;;;7.47;;
8927;SDS011;4499;48.304;11.902;2023-04-06T01:32:20;9.70;;;6.80;;
8927;SDS011;4499;48.304;11.902;2023-04-06T01:34:49;11.17;;;7.10;;
8927;SDS011;4499;48.304;11.902;2023-04-06T01:37:17;9.47;;;7.20;;
8927;SDS011;4499;48.304;11.902;2023-04-06T01:39:47;9.10;;;7.17;;
8927;SDS011;4499;48.304;11.902;2023-04-06T01:42:15;8.67;;;6.83;;
8927;SDS011;4499;48.304;11.902;2023-04-06T01:44:44;9.90;;;7.07;;
8927;SDS011;4499;48.304;11.902;2023-04-06T01:47:13;10.73;;;6.77;;
8927;SDS011;4499;48.304;11.902;2023-04-06T01:49:41;11.00;;;7.17;;
8927;SDS011;4499;48.304;11.902;2023-04-06T01:52:09;9.07;;;7.00;;
8927;SDS011;4499;48.304;11.902;2023-04-06T01:54:37;9.60;;;7.27;;
8927;SDS011;4499;48.304;11.902;2023-04-06T01:57:07;9.40;;;6.80;;
8927;SDS011;4499;48.304;11.902;2023-04-06T01:59:35;8.30;;;7.00;;
8927;SDS011;4499;48.304;11.902;2023-04-06T02:02:04;9.63;;;7.00;;
8927;SDS011;4499;48.304;11.902;2023-04-06T02:04:32;11.17;;;7.40;;
8927;SDS011;4499;48.304;11.902;2023-04-06T02:07:00;11.67;;;7.17;;
8927;SDS011;4499;48.304;11.902;2023-04-06T02:09:28;12.10;;;6.90;;
8927;SDS011;4499;48.304;11.902;2023-04-06T02:11:57;8.90;;;7.23;;
8927;SDS011;4499;48.304;11.902;2023-04-06T02:14:26;10.20;;;7.10;;
8927;SDS011;4499;48.304;11.902;2023-04-06T02:16:54;8.97;;;6.90;;
8927;SDS011;4499;48.304;11.902;2023-04-06T02:19:23;10.63;;;7.30;;
8927;SDS011;4499;48.304;11.902;2023-04-06T02:21:51;11.00;;;7.40;;
8927;SDS011;4499;48.304;11.902;2023-04-06T02:24:19;8.70;;;7.20;;
8927;SDS011;4499;48.304;11.902;2023-04-06T02:26:47;9.50;;;7.20;;
8927;SDS011;4499;48.304;11.902;2023-04-06T02:29:16;10.47;;;7.63;;
8927;SDS011;4499;48.304;11.902;2023-04-06T02:31:45;10.23;;;7.10;;
8927;SDS011;4499;48.304;11.902;2023-04-06T02:34:13;8.77;;;7.10;;
8927;SDS011;4499;48.304;11.902;2023-04-06T02:36:44;9.70;;;7.30;;
8927;SDS011;4499;48.304;11.902;2023-04-06T02:39:13;9.57;;;7.10;;
8927;SDS011;4499;48.304;11.902;2023-04-06T02:41:41;10.27;;;7.60;;
8927;SDS011;4499;48.304;11.902;2023-04-06T02:44:10;8.53;;;7.00;;
8927;SDS011;4499;48.304;11.902;2023-04-06T02:46:38;10.87;;;7.03;;
8927;SDS011;4499;48.304;11.902;2023-04-06T02:49:08;10.60;;;7.20;;
8927;SDS011;4499;48.304;11.902;2023-04-06T02:51:36;9.23;;;7.30;;
8927;SDS011;4499;48.304;11.902;2023-04-06T02:54:04;10.13;;;7.07;;
8927;SDS011;4499;48.304;11.902;2023-04-06T02:56:32;10.43;;;7.40;;
8927;SDS011;4499;48.304;11.902;2023-04-06T02:59:00;11.53;;;7.47;;
8927;SDS011;4499;48.304;11.902;2023-04-06T03:01:29;11.57;;;7.87;;
8927;SDS011;4499;48.304;11.902;2023-04-06T03:03:57;12.50;;;9.00;;
8927;SDS011;4499;48.304;11.902;2023-04-06T03:06:27;14.83;;;9.20;;
8927;SDS011;4499;48.304;11.902;2023-04-06T03:08:55;13.37;;;8.90;;
8927;SDS011;4499;48.304;11.902;2023-04-06T03:11:23;12.40;;;8.93;;
8927;SDS011;4499;48.304;11.902;2023-04-06T03:13:53;12.10;;;8.63;;
8927;SDS011;4499;48.304;11.902;2023-04-06T03:16:21;11.23;;;7.83;;
8927;SDS011;4499;48.304;11.902;2023-04-06T03:18:49;7.97;;;6.47;;
8927;SDS011;4499;48.304;11.902;2023-04-06T03:21:17;10.53;;;6.90;;
8927;SDS011;4499;48.304;11.902;2023-04-06T03:23:47;10.17;;;6.57;;
8927;SDS011;4499;48.304;11.902;2023-04-06T03:26:17;9.47;;;6.57;;
8927;SDS011;4499;48.304;11.902;2023-04-06T03:28:45;8.70;;;6.63;;
8927;SDS011;4499;48.304;11.902;2023-04-06T03:31:13;9.10;;;6.80;;
8927;SDS011;4499;48.304;11.902;2023-04-06T03:33:42;9.53;;;6.57;;
8927;SDS011;4499;48.304;11.902;2023-04-06T03:36:10;9.60;;;7.27;;
8927;SDS011;4499;48.304;11.902;2023-04-06T03:38:38;8.57;;;6.50;;
8927;SDS011;4499;48.304;11.902;2023-04-06T03:41:08;9.33;;;6.83;;
8927;SDS011;4499;48.304;11.902;2023-04-06T03:43:36;13.53;;;7.17;;
8927;SDS011;4499;48.304;11.902;2023-04-06T03:46:04;12.77;;;7.37;;
8927;SDS011;4499;48.304;11.902;2023-04-06T03:48:33;11.30;;;7.43;;
8927;SDS011;4499;48.304;11.902;2023-04-06T03:51:01;10.93;;;7.87;;
8927;SDS011;4499;48.304;11.902;2023-04-06T03:53:29;10.37;;;7.23;;
8927;SDS011;4499;48.304;11.902;2023-04-06T03:55:58;10.53;;;7.30;;
8927;SDS011;4499;48.304;11.902;2023-04-06T03:58:31;12.90;;;9.10;;
8927;SDS011;4499;48.304;11.902;2023-04-06T04:00:59;11.10;;;7.97;;
8927;SDS011;4499;48.304;11.902;2023-04-06T04:03:27;9.67;;;7.70;;
8927;SDS011;4499;48.304;11.902;2023-04-06T04:05:56;10.93;;;7.63;;
8927;SDS011;4499;48.304;11.902;2023-04-06T04:08:24;9.63;;;7.77;;
8927;SDS011;4499;48.304;11.902;2023-04-06T04:10:52;9.10;;;7.50;;
8927;SDS011;4499;48.304;11.902;2023-04-06T04:13:21;11.97;;;7.60;;
8927;SDS011;4499;48.304;11.902;2023-04-06T04:15:51;13.83;;;7.53;;
8927;SDS011;4499;48.304;11.902;2023-04-06T04:18:20;10.00;;;7.80;;
8927;SDS011;4499;48.304;11.902;2023-04-06T04:20:52;11.07;;;8.13;;
8927;SDS011;4499;48.304;11.902;2023-04-06T04:23:20;12.63;;;8.37;;
8927;SDS011;4499;48.304;11.902;2023-04-06T04:25:49;16.10;;;10.47;;
8927;SDS011;4499;48.304;11.902;2023-04-06T04:28:17;15.73;;;10.70;;
8927;SDS011;4499;48.304;11.902;2023-04-06T04:30:46;14.63;;;9.40;;
8927;SDS011;4499;48.304;11.902;2023-04-06T04:33:15;22.20;;;10.50;;
8927;SDS011;4499;48.304;11.902;2023-04-06T04:35:43;16.77;;;10.57;;
8927;SDS011;4499;48.304;11.902;2023-04-06T04:38:12;14.53;;;9.50;;
8927;SDS011;4499;48.304;11.902;2023-04-06T04:40:40;13.60;;;9.27;;
8927;SDS011;4499;48.304;11.902;2023-04-06T04:43:08;17.27;;;9.93;;
8927;SDS011;4499;48.304;11.902;2023-04-06T04:45:37;16.80;;;9.83;;
8927;SDS011;4499;48.304;11.902;2023-04-06T04:48:05;13.27;;;9.73;;
8927;SDS011;4499;48.304;11.902;2023-04-06T04:50:36;13.47;;;9.73;;
8927;SDS011;4499;48.304;11.902;2023-04-06T04:53:04;14.90;;;9.93;;
8927;SDS011;4499;48.304;11.902;2023-04-06T04:55:32;15.00;;;10.23;;
8927;SDS011;4499;48.304;11.902;2023-04-06T04:58:00;13.90;;;9.93;;
8927;SDS011;4499;48.304;11.902;2023-04-06T05:00:29;16.17;;;9.97;;
8927;SDS011;4499;48.304;11.902;2023-04-06T05:02:57;15.40;;;10.13;;
8927;SDS011;4499;48.304;11.902;2023-04-06T05:05:26;13.27;;;9.87;;
8927;SDS011;4499;48.304;11.902;2023-04-06T05:07:56;14.97;;;9.43;;
8927;SDS011;4499;48.304;11.902;2023-04-06T05:10:24;16.07;;;10.27;;
8927;SDS011;4499;48.304;11.902;2023-04-06T05:12:52;17.67;;;9.97;;
8927;SDS011;4499;48.304;11.902;2023-04-06T05:15:20;14.60;;;9.87;;
8927;SDS011;4499;48.304;11.902;2023-04-06T05:17:49;14.40;;;10.53;;
8927;SDS011;4499;48.304;11.902;2023-04-06T05:20:18;15.67;;;10.90;;
8927;SDS011;4499;48.304;11.902;2023-04-06T05:22:46;16.53;;;10.80;;
8927;SDS011;4499;48.304;11.902;2023-04-06T05:25:16;16.97;;;11.00;;
8927;SDS011;4499;48.304;11.902;2023-04-06T05:27:44;15.70;;;11.03;;
8927;SDS011;4499;48.304;11.902;2023-04-06T05:30:13;15.53;;;10.83;;
8927;SDS011;4499;48.304;11.902;2023-04-06T05:32:42;15.37;;;10.73;;
8927;SDS011;4499;48.304;11.902;2023-04-06T05:35:10;14.20;;;9.90;;
8927;SDS011;4499;48.304;11.902;2023-04-06T05:37:39;12.80;;;9.50;;
8927;SDS011;4499;48.304;11.902;2023-04-06T05:40:07;14.07;;;8.97;;
8927;SDS011;4499;48.304;11.902;2023-04-06T05:42:38;13.53;;;8.53;;
8927;SDS011;4499;48.304;11.902;2023-04-06T05:45:07;13.07;;;8.57;;
8927;SDS011;4499;48.304;11.902;2023-04-06T05:47:37;14.23;;;8.37;;
8927;SDS011;4499;48.304;11.902;2023-04-06T05:50:05;14.13;;;9.20;;
8927;SDS011;4499;48.304;11.902;2023-04-06T05:52:34;12.10;;;9.60;;
8927;SDS011;4499;48.304;11.902;2023-04-06T05:55:03;13.47;;;8.60;;
8927;SDS011;4499;48.304;11.902;2023-04-06T05:57:33;15.77;;;9.27;;
8927;SDS011;4499;48.304;11.902;2023-04-06T06:00:03;14.60;;;8.30;;
8927;SDS011;4499;48.304;11.902;2023-04-06T06:02:33;13.50;;;8.97;;
8927;SDS011;4499;48.304;11.902;2023-04-06T06:05:01;12.13;;;8.20;;
8927;SDS011;4499;48.304;11.902;2023-04-06T06:07:32;10.40;;;7.80;;
8927;SDS011;4499;48.304;11.902;2023-04-06T06:10:00;11.70;;;7.80;;
8927;SDS011;4499;48.304;11.902;2023-04-06T06:12:29;10.67;;;7.50;;
8927;SDS011;4499;48.304;11.902;2023-04-06T06:14:57;8.40;;;6.77;;
8927;SDS011;4499;48.304;11.902;2023-04-06T06:17:26;10.27;;;6.40;;
8927;SDS011;4499;48.304;11.902;2023-04-06T06:19:55;9.50;;;6.03;;
8927;SDS011;4499;48.304;11.902;2023-04-06T06:22:23;7.87;;;5.70;;
8927;SDS011;4499;48.304;11.902;2023-04-06T06:24:51;7.27;;;5.47;;
8927;SDS011;4499;48.304;11.902;2023-04-06T13:10:46;8.80;;;7.90;;
8927;SDS011;4499;48.304;11.902;2023-04-06T13:13:22;8.60;;;7.70;;
8927;SDS011;4499;48.304;11.902;2023-04-06T13:15:50;8.40;;;7.60;;
8927;SDS011;4499;48.304;11.902;2023-04-06T13:18:19;12.70;;;10.93;;
8927;SDS011;4499;48.304;11.902;2023-04-06T13:20:47;10.43;;;9.20;;
8927;SDS011;4499;48.304;11.902;2023-04-06T13:23:15;8.77;;;7.87;;
8927;SDS011;4499;48.304;11.902;2023-04-06T13:25:45;8.47;;;7.57;;
8927;SDS011;4499;48.304;11.902;2023-04-06T13:28:13;9.07;;;7.53;;
8927;SDS011;4499;48.304;11.902;2023-04-06T13:30:42;9.00;;;8.00;;
8927;SDS011;4499;48.304;11.902;2023-04-06T13:33:10;10.60;;;7.73;;
8927;SDS011;4499;48.304;11.902;2023-04-06T13:35:38;9.47;;;7.97;;
8927;SDS011;4499;48.304;11.902;2023-04-06T13:38:07;8.57;;;7.50;;
8927;SDS011;4499;48.304;11.902;2023-04-06T13:40:35;9.87;;;8.17;;
8927;SDS011;4499;48.304;11.902;2023-04-06T13:43:07;9.43;;;8.43;;
8927;SDS011;4499;48.304;11.902;2023-04-06T13:45:36;9.37;;;8.33;;
8927;SDS011;4499;48.304;11.902;2023-04-06T13:48:04;9.50;;;8.10;;
8927;SDS011;4499;48.304;11.902;2023-04-06T13:50:33;9.87;;;8.33;;
8927;SDS011;4499;48.304;11.902;2023-04-06T13:53:01;12.03;;;7.90;;
8927;SDS011;4499;48.304;11.902;2023-04-06T13:55:29;10.00;;;8.50;;
8927;SDS011;4499;48.304;11.902;2023-04-06T13:57:57;9.43;;;8.30;;
8927;SDS011;4499;48.304;11.902;2023-04-06T14:00:27;10.07;;;9.07;;
8927;SDS011;4499;48.304;11.902;2023-04-06T14:02:55;9.90;;;8.57;;
8927;SDS011;4499;48.304;11.902;2023-04-06T14:05:23;9.70;;;8.70;;
8927;SDS011;4499;48.304;11.902;2023-04-06T14:07:53;11.20;;;8.13;;
8927;SDS011;4499;48.304;11.902;2023-04-06T14:10:21;10.30;;;8.73;;
8927;SDS011;4499;48.304;11.902;2023-04-06T14:12:53;10.70;;;8.43;;
8927;SDS011;4499;48.304;11.902;2023-04-06T14:15:22;9.60;;;8.70;;
8927;SDS011;4499;48.304;11.902;2023-04-06T14:17:52;8.97;;;8.10;;
8927;SDS011;4499;48.304;11.902;2023-04-06T14:20:20;9.10;;;8.07;;
8927;SDS011;4499;48.304;11.902;2023-04-06T14:22:48;8.90;;;8.00;;
8927;SDS011;4499;48.304;11.902;2023-04-06T14:25:18;8.80;;;8.00;;
8927;SDS011;4499;48.304;11.902;2023-04-06T14:27:47;9.73;;;8.67;;
8927;SDS011;4499;48.304;11.902;2023-04-06T14:30:15;9.80;;;8.80;;
8927;SDS011;4499;48.304;11.902;2023-04-06T14:32:43;8.87;;;7.93;;
8927;SDS011;4499;48.304;11.902;2023-04-06T14:35:12;9.17;;;8.00;;
8927;SDS011;4499;48.304;11.902;2023-04-06T14:37:40;9.83;;;7.60;;
8927;SDS011;4499;48.304;11.902;2023-04-06T14:40:09;9.67;;;7.60;;
8927;SDS011;4499;48.304;11.902;2023-04-06T14:42:37;9.77;;;8.00;;
8927;SDS011;4499;48.304;11.902;2023-04-06T14:45:06;8.10;;;7.30;;
8927;SDS011;4499;48.304;11.902;2023-04-06T14:47:34;8.67;;;7.63;;
8927;SDS011;4499;48.304;11.902;2023-04-06T14:50:03;9.83;;;7.77;;
8927;SDS011;4499;48.304;11.902;2023-04-06T14:52:33;8.13;;;7.33;;
8927;SDS011;4499;48.304;11.902;2023-04-06T14:55:02;8.03;;;7.23;;
8927;SDS011;4499;48.304;11.902;2023-04-06T14:57:31;8.77;;;7.87;;
8927;SDS011;4499;48.304;11.902;2023-04-06T15:00:00;8.47;;;7.60;;
8927;SDS011;4499;48.304;11.902;2023-04-06T15:02:29;10.10;;;7.83;;
8927;SDS011;4499;48.304;11.902;2023-04-06T15:05:00;9.63;;;7.80;;
8927;SDS011;4499;48.304;11.902;2023-04-06T15:07:29;8.67;;;7.77;;
8927;SDS011;4499;48.304;11.902;2023-04-06T15:09:58;9.07;;;7.50;;
8927;SDS011;4499;48.304;11.902;2023-04-06T15:12:26;9.03;;;7.10;;
8927;SDS011;4499;48.304;11.902;2023-04-06T15:14:55;8.90;;;7.77;;
8927;SDS011;4499;48.304;11.902;2023-04-06T15:17:24;8.40;;;7.50;;
8927;SDS011;4499;48.304;11.902;2023-04-06T15:19:53;8.63;;;7.10;;
8927;SDS011;4499;48.304;11.902;2023-04-06T15:22:21;8.50;;;7.20;;
8927;SDS011;4499;48.304;11.902;2023-04-06T15:24:49;7.80;;;7.00;;
8927;SDS011;4499;48.304;11.902;2023-04-06T15:27:19;8.30;;;7.13;;
8927;SDS011;4499;48.304;11.902;2023-04-06T15:29:47;10.43;;;7.20;;
8927;SDS011;4499;48.304;11.902;2023-04-06T15:32:15;7.67;;;6.50;;
8927;SDS011;4499;48.304;11.902;2023-04-06T15:34:43;11.97;;;7.67;;
8927;SDS011;4499;48.304;11.902;2023-04-06T15:37:11;11.13;;;8.07;;
8927;SDS011;4499;48.304;11.902;2023-04-06T15:39:39;17.50;;;11.30;;
8927;SDS011;4499;48.304;11.902;2023-04-06T15:42:09;30.97;;;22.00;;
8927;SDS011;4499;48.304;11.902;2023-04-06T15:44:38;11.70;;;8.47;;
8927;SDS011;4499;48.304;11.902;2023-04-06T15:47:06;10.57;;;8.63;;
8927;SDS011;4499;48.304;11.902;2023-04-06T15:49:34;9.33;;;8.23;;
8927;SDS011;4499;48.304;11.902;2023-04-06T15:52:02;9.50;;;8.50;;
8927;SDS011;4499;48.304;11.902;2023-04-06T15:54:31;9.43;;;8.27;;
8927;SDS011;4499;48.304;11.902;2023-04-06T15:57:01;9.93;;;8.47;;
8927;SDS011;4499;48.304;11.902;2023-04-06T15:59:29;11.50;;;8.67;;
8927;SDS011;4499;48.304;11.902;2023-04-06T16:01:59;9.93;;;8.53;;
8927;SDS011;4499;48.304;11.902;2023-04-06T16:04:27;13.10;;;8.70;;
8927;SDS011;4499;48.304;11.902;2023-04-06T16:06:56;9.80;;;8.80;;
8927;SDS011;4499;48.304;11.902;2023-04-06T16:09:24;11.67;;;8.33;;
8927;SDS011;4499;48.304;11.902;2023-04-06T16:11:52;9.80;;;8.60;;
8927;SDS011;4499;48.304;11.902;2023-04-06T16:14:22;11.17;;;9.17;;
8927;SDS011;4499;48.304;11.902;2023-04-06T16:16:50;11.23;;;8.97;;
8927;SDS011;4499;48.304;11.902;2023-04-06T16:19:20;13.87;;;9.27;;
8927;SDS011;4499;48.304;11.902;2023-04-06T16:21:48;9.60;;;8.37;;
8927;SDS011;4499;48.304;11.902;2023-04-06T16:24:16;11.70;;;8.57;;
8927;SDS011;4499;48.304;11.902;2023-04-06T16:26:45;10.10;;;8.27;;
8927;SDS011;4499;48.304;11.902;2023-04-06T16:29:13;10.50;;;8.60;;
8927;SDS011;4499;48.304;11.902;2023-04-06T16:31:42;9.87;;;8.57;;
8927;SDS011;4499;48.304;11.902;2023-04-06T16:34:13;9.67;;;8.67;;
8927;SDS011;4499;48.304;11.902;2023-04-06T16:36:42;9.90;;;6.77;;
8927;SDS011;4499;48.304;11.902;2023-04-06T16:39:11;8.60;;;7.30;;
8927;SDS011;4499;48.304;11.902;2023-04-06T16:41:39;8.20;;;7.10;;
8927;SDS011;4499;48.304;11.902;2023-04-06T16:44:08;9.27;;;6.90;;
8927;SDS011;4499;48.304;11.902;2023-04-06T16:46:37;7.97;;;6.50;;
8927;SDS011;4499;48.304;11.902;2023-04-06T16:49:05;8.13;;;6.53;;
8927;SDS011;4499;48.304;11.902;2023-04-06T16:51:33;7.90;;;6.60;;
8927;SDS011;4499;48.304;11.902;2023-04-06T16:54:03;7.33;;;6.30;;
8927;SDS011;4499;48.304;11.902;2023-04-06T16:56:32;7.80;;;6.27;;
8927;SDS011;4499;48.304;11.902;2023-04-06T16:59:00;8.83;;;6.63;;
8927;SDS011;4499;48.304;11.902;2023-04-06T17:01:28;6.90;;;6.20;;
8927;SDS011;4499;48.304;11.902;2023-04-06T17:03:56;7.27;;;6.03;;
8927;SDS011;4499;48.304;11.902;2023-04-06T17:06:24;8.63;;;6.70;;
8927;SDS011;4499;48.304;11.902;2023-04-06T17:08:54;7.43;;;6.27;;
8927;SDS011;4499;48.304;11.902;2023-04-06T17:11:23;8.60;;;7.00;;
8927;SDS011;4499;48.304;11.902;2023-04-06T17:14:11;11.10;;;7.40;;
8927;SDS011;4499;48.304;11.902;2023-04-06T17:16:40;11.53;;;7.40;;
8927;SDS011;4499;48.304;11.902;2023-04-06T17:19:08;13.20;;;8.70;;
8927;SDS011;4499;48.304;11.902;2023-04-06T17:21:37;12.23;;;9.57;;
8927;SDS011;4499;48.304;11.902;2023-04-06T17:24:06;9.60;;;8.40;;
8927;SDS011;4499;48.304;11.902;2023-04-06T17:26:36;10.80;;;8.00;;
8927;SDS011;4499;48.304;11.902;2023-04-06T17:29:04;10.43;;;7.63;;
8927;SDS011;4499;48.304;11.902;2023-04-06T17:31:32;10.47;;;7.93;;
8927;SDS011;4499;48.304;11.902;2023-04-06T17:34:00;10.33;;;8.10;;
8927;SDS011;4499;48.304;11.902;2023-04-06T17:36:29;10.67;;;8.00;;
8927;SDS011;4499;48.304;11.902;2023-04-06T17:38:58;9.27;;;8.07;;
8927;SDS011;4499;48.304;11.902;2023-04-06T17:41:26;11.47;;;8.13;;
8927;SDS011;4499;48.304;11.902;2023-04-06T17:43:59;12.53;;;8.43;;
8927;SDS011;4499;48.304;11.902;2023-04-06T17:46:27;9.87;;;8.10;;
8927;SDS011;4499;48.304;11.902;2023-04-06T17:48:55;9.20;;;8.23;;
8927;SDS011;4499;48.304;11.902;2023-04-06T17:51:23;10.40;;;8.53;;
8927;SDS011;4499;48.304;11.902;2023-04-06T17:53:52;9.80;;;8.50;;
8927;SDS011;4499;48.304;11.902;2023-04-06T17:56:21;12.57;;;7.93;;
8927;SDS011;4499;48.304;11.902;2023-04-06T17:58:49;11.73;;;9.00;;
8927;SDS011;4499;48.304;11.902;2023-04-06T18:01:22;13.00;;;10.23;;
8927;SDS011;4499;48.304;11.902;2023-04-06T18:03:51;11.50;;;9.13;;
8927;SDS011;4499;48.304;11.902;2023-04-06T18:06:19;11.77;;;8.83;;
8927;SDS011;4499;48.304;11.902;2023-04-06T18:08:51;11.87;;;8.50;;
8927;SDS011;4499;48.304;11.902;2023-04-06T18:11:19;13.73;;;9.10;;
8927;SDS011;4499;48.304;11.902;2023-04-06T18:13:49;15.10;;;9.60;;
8927;SDS011;4499;48.304;11.902;2023-04-06T18:16:17;12.83;;;9.57;;
8927;SDS011;4499;48.304;11.902;2023-04-06T18:18:48;10.73;;;8.73;;
8927;SDS011;4499;48.304;11.902;2023-04-06T18:21:16;11.30;;;9.60;;
8927;SDS011;4499;48.304;11.902;2023-04-06T18:23:45;12.03;;;9.93;;
8927;SDS011;4499;48.304;11.902;2023-04-06T18:26:14;12.63;;;10.30;;
8927;SDS011;4499;48.304;11.902;2023-04-06T18:28:43;12.90;;;10.40;;
8927;SDS011;4499;48.304;11.902;2023-04-06T18:31:11;15.27;;;11.07;;
8927;SDS011;4499;48.304;11.902;2023-04-06T18:33:40;13.73;;;10.53;;
8927;SDS011;4499;48.304;11.902;2023-04-06T18:36:10;11.63;;;10.43;;
8927;SDS011;4499;48.304;11.902;2023-04-06T18:38:41;12.37;;;10.37;;
8927;SDS011;4499;48.304;11.902;2023-04-06T18:41:09;15.17;;;10.53;;
8927;SDS011;4499;48.304;11.902;2023-04-06T18:43:37;14.63;;;10.90;;
8927;SDS011;4499;48.304;11.902;2023-04-06T18:46:10;15.70;;;10.10;;
8927;SDS011;4499;48.304;11.902;2023-04-06T18:48:39;14.33;;;11.20;;
8927;SDS011;4499;48.304;11.902;2023-04-06T18:51:07;15.47;;;10.80;;
8927;SDS011;4499;48.304;11.902;2023-04-06T18:53:36;15.50;;;11.63;;
8927;SDS011;4499;48.304;11.902;2023-04-06T18:56:11;15.27;;;11.97;;
8927;SDS011;4499;48.304;11.902;2023-04-06T18:58:41;17.23;;;12.43;;
8927;SDS011;4499;48.304;11.902;2023-04-06T19:01:09;16.57;;;13.63;;
8927;SDS011;4499;48.304;11.902;2023-04-06T19:03:37;20.73;;;14.87;;
8927;SDS011;4499;48.304;11.902;2023-04-06T19:06:05;21.17;;;14.63;;
8927;SDS011;4499;48.304;11.902;2023-04-06T19:08:34;18.30;;;13.20;;
8927;SDS011;4499;48.304;11.902;2023-04-06T19:11:07;16.50;;;12.97;;
8927;SDS011;4499;48.304;11.902;2023-04-06T19:13:35;17.87;;;13.60;;
8927;SDS011;4499;48.304;11.902;2023-04-06T19:16:06;17.97;;;13.97;;
8927;SDS011;4499;48.304;11.902;2023-04-06T19:18:35;18.93;;;14.03;;
8927;SDS011;4499;48.304;11.902;2023-04-06T19:21:03;18.47;;;14.47;;
8927;SDS011;4499;48.304;11.902;2023-04-06T19:23:40;19.53;;;14.60;;
8927;SDS011;4499;48.304;11.902;2023-04-06T19:26:10;16.73;;;13.30;;
8927;SDS011;4499;48.304;11.902;2023-04-06T19:28:39;15.93;;;12.93;;
8927;SDS011;4499;48.304;11.902;2023-04-06T19:31:08;20.07;;;13.37;;
8927;SDS011;4499;48.304;11.902;2023-04-06T19:33:39;16.13;;;13.00;;
8927;SDS011;4499;48.304;11.902;2023-04-06T19:36:07;16.80;;;12.57;;
8927;SDS011;4499;48.304;11.902;2023-04-06T19:38:35;20.20;;;12.93;;
8927;SDS011;4499;48.304;11.902;2023-04-06T19:41:04;17.23;;;11.73;;
8927;SDS011;4499;48.304;11.902;2023-04-06T19:43:34;17.27;;;13.80;;
8927;SDS011;4499;48.304;11.902;2023-04-06T19:46:02;17.83;;;13.47;;
8927;SDS011;4499;48.304;11.902;2023-04-06T19:48:30;19.07;;;13.50;;
8927;SDS011;4499;48.304;11.902;2023-04-06T19:50:59;20.67;;;15.70;;
8927;SDS011;4499;48.304;11.902;2023-04-06T19:53:27;18.77;;;15.63;;
8927;SDS011;4499;48.304;11.902;2023-04-06T19:55:56;21.10;;;16.60;;
8927;SDS011;4499;48.304;11.902;2023-04-06T19:58:24;18.33;;;15.67;;
8927;SDS011;4499;48.304;11.902;2023-04-06T20:00:53;22.07;;;16.57;;
8927;SDS011;4499;48.304;11.902;2023-04-06T20:03:22;21.73;;;16.80;;
8927;SDS011;4499;48.304;11.902;2023-04-06T20:05:50;23.87;;;18.43;;
8927;SDS011;4499;48.304;11.902;2023-04-06T20:08:18;23.23;;;17.77;;
8927;SDS011;4499;48.304;11.902;2023-04-06T20:10:46;21.60;;;16.20;;
8927;SDS011;4499;48.304;11.902;2023-04-06T20:13:14;18.90;;;15.53;;
8927;SDS011;4499;48.304;11.902;2023-04-06T20:15:42;19.70;;;15.20;;
8927;SDS011;4499;48.304;11.902;2023-04-06T20:18:12;19.57;;;14.73;;
8927;SDS011;4499;48.304;11.902;2023-04-06T20:20:44;18.70;;;14.40;;
8927;SDS011;4499;48.304;11.902;2023-04-06T20:23:12;19.10;;;14.87;;
8927;SDS011;4499;48.304;11.902;2023-04-06T20:25:40;19.07;;;14.23;;
8927;SDS011;4499;48.304;11.902;2023-04-06T20:28:08;19.90;;;14.70;;
8927;SDS011;4499;48.304;11.902;2023-04-06T20:30:36;20.30;;;13.67;;
8927;SDS011;4499;48.304;11.902;2023-04-06T20:33:05;18.63;;;15.73;;
8927;SDS011;4499;48.304;11.902;2023-04-06T20:35:34;19.13;;;16.13;;
8927;SDS011;4499;48.304;11.902;2023-04-06T20:38:02;20.80;;;16.17;;
8927;SDS011;4499;48.304;11.902;2023-04-06T20:40:30;21.87;;;15.73;;
8927;SDS011;4499;48.304;11.902;2023-04-06T20:42:58;25.07;;;16.23;;
8927;SDS011;4499;48.304;11.902;2023-04-06T20:45:30;24.63;;;16.73;;
8927;SDS011;4499;48.304;11.902;2023-04-06T20:48:03;22.37;;;16.77;;
8927;SDS011;4499;48.304;11.902;2023-04-06T20:50:31;22.23;;;16.70;;
8927;SDS011;4499;48.304;11.902;2023-04-06T20:53:01;22.47;;;16.57;;
8927;SDS011;4499;48.304;11.902;2023-04-06T20:55:29;20.33;;;16.00;;
8927;SDS011;4499;48.304;11.902;2023-04-06T20:57:59;20.97;;;15.20;;
8927;SDS011;4499;48.304;11.902;2023-04-06T21:00:27;18.43;;;15.27;;
8927;SDS011;4499;48.304;11.902;2023-04-06T21:02:55;19.20;;;15.93;;
8927;SDS011;4499;48.304;11.902;2023-04-06T21:05:23;18.87;;;15.57;;
8927;SDS011;4499;48.304;11.902;2023-04-06T21:07:52;22.23;;;16.03;;
8927;SDS011;4499;48.304;11.902;2023-04-06T21:10:22;19.73;;;16.33;;
8927;SDS011;4499;48.304;11.902;2023-04-06T21:12:50;21.43;;;16.43;;
8927;SDS011;4499;48.304;11.902;2023-04-06T21:15:18;20.93;;;16.77;;
8927;SDS011;4499;48.304;11.902;2023-04-06T21:17:46;20.60;;;16.60;;
8927;SDS011;4499;48.304;11.902;2023-04-06T21:20:15;20.67;;;16.70;;
8927;SDS011;4499;48.304;11.902;2023-04-06T21:22:43;20.97;;;16.03;;
8927;SDS011;4499;48.304;11.902;2023-04-06T21:25:11;18.70;;;15.87;;
8927;SDS011;4499;48.304;11.902;2023-04-06T21:27:41;19.77;;;16.17;;
8927;SDS011;4499;48.304;11.902;2023-04-06T21:30:10;19.03;;;15.40;;
8927;SDS011;4499;48.304;11.902;2023-04-06T21:32:39;20.93;;;16.50;;
8927;SDS011;4499;48.304;11.902;2023-04-06T21:35:07;22.90;;;15.77;;
8927;SDS011;4499;48.304;11.902;2023-04-06T21:37:36;21.90;;;16.07;;
8927;SDS011;4499;48.304;11.902;2023-04-06T21:40:05;20.27;;;15.37;;